createdAt,value
2022-09-30T00:01:39.843Z,7.68
2022-09-30T00:04:21.543Z,8.38
2022-09-30T00:06:48.841Z,8.63
2022-09-30T00:09:16.665Z,8.00
2022-09-30T00:11:44.497Z,7.95
2022-09-30T00:14:20.518Z,8.57
2022-09-30T00:16:48.120Z,8.07
2022-09-30T00:19:15.536Z,8.07
2022-09-30T00:21:42.996Z,8.00
2022-09-30T00:24:10.160Z,8.55
2022-09-30T00:26:37.519Z,8.27
2022-09-30T00:29:05.262Z,7.78
2022-09-30T00:31:34.053Z,7.45
2022-09-30T00:34:07.657Z,7.97
2022-09-30T00:36:39.691Z,7.55
2022-09-30T00:39:08.735Z,8.00
2022-09-30T00:41:37.580Z,8.07
2022-09-30T00:44:39.920Z,7.32
2022-09-30T00:47:30.487Z,7.90
2022-09-30T00:50:00.632Z,7.90
2022-09-30T00:52:28.051Z,7.78
2022-09-30T00:54:58.247Z,7.28
2022-09-30T00:59:52.666Z,7.72
2022-09-30T01:02:20.459Z,8.07
2022-09-30T01:04:47.995Z,7.53
2022-09-30T01:07:15.226Z,7.90
2022-09-30T01:09:43.341Z,7.13
2022-09-30T01:12:17.452Z,7.35
2022-09-30T01:14:45.558Z,7.63
2022-09-30T01:17:12.985Z,6.90
2022-09-30T01:19:57.480Z,7.53
2022-09-30T01:22:42.183Z,7.65
2022-09-30T01:25:28.485Z,7.47
2022-09-30T01:28:33.071Z,7.28
2022-09-30T01:31:08.167Z,7.22
2022-09-30T01:33:40.148Z,7.38
2022-09-30T01:36:32.545Z,7.35
2022-09-30T01:39:10.539Z,7.15
2022-09-30T01:41:59.867Z,8.25
2022-09-30T01:45:07.916Z,6.60
2022-09-30T01:47:44.168Z,7.60
2022-09-30T01:50:22.183Z,7.53
2022-09-30T01:52:49.344Z,7.00
2022-09-30T01:55:29.550Z,7.00
2022-09-30T02:00:37.208Z,7.65
2022-09-30T02:03:22.253Z,7.53
2022-09-30T02:05:57.765Z,7.60
2022-09-30T02:08:29.208Z,7.35
2022-09-30T02:11:02.658Z,7.03
2022-09-30T02:13:32.926Z,7.70
2022-09-30T02:16:12.686Z,7.07
2022-09-30T02:18:47.184Z,7.13
2022-09-30T02:21:19.609Z,6.95
2022-09-30T02:23:49.555Z,7.10
2022-09-30T02:26:23.313Z,7.35
2022-09-30T02:28:59.231Z,6.97
2022-09-30T02:31:28.280Z,7.65
2022-09-30T02:34:00.691Z,7.13
2022-09-30T02:36:32.382Z,7.60
2022-09-30T02:39:06.204Z,7.15
2022-09-30T02:41:39.519Z,6.70
2022-09-30T02:44:06.754Z,6.85
2022-09-30T02:46:50.372Z,7.75
2022-09-30T02:49:29.647Z,7.50
2022-09-30T02:52:01.922Z,7.85
2022-09-30T02:54:34.832Z,6.55
2022-09-30T02:57:14.783Z,6.70
2022-09-30T02:59:41.995Z,6.22
2022-09-30T03:02:09.287Z,6.53
2022-09-30T03:04:39.733Z,6.90
2022-09-30T03:07:07.635Z,6.90
2022-09-30T03:09:36.072Z,6.88
2022-09-30T03:12:15.285Z,6.85
2022-09-30T03:15:10.666Z,6.53
2022-09-30T03:17:50.489Z,6.50
2022-09-30T03:20:32.984Z,6.15
2022-09-30T03:23:35.094Z,6.00
2022-09-30T03:26:16.623Z,6.70
2022-09-30T03:29:08.837Z,6.32
2022-09-30T03:32:08.249Z,6.30
2022-09-30T03:35:11.532Z,6.75
2022-09-30T03:37:39.173Z,6.43
2022-09-30T03:40:17.735Z,5.88
2022-09-30T03:42:48.149Z,6.22
2022-09-30T03:45:29.023Z,5.82
2022-09-30T03:47:59.142Z,6.30
2022-09-30T03:52:53.582Z,5.70
2022-09-30T03:55:22.665Z,6.50
2022-09-30T03:57:51.274Z,7.20
2022-09-30T04:00:19.065Z,6.28
2022-09-30T04:02:46.403Z,6.82
2022-09-30T04:05:13.784Z,5.88
2022-09-30T04:07:41.116Z,6.93
2022-09-30T04:10:08.900Z,6.95
2022-09-30T04:12:36.133Z,6.80
2022-09-30T04:15:03.592Z,6.43
2022-09-30T04:17:31.059Z,6.47
2022-09-30T04:19:58.294Z,6.40
2022-09-30T04:22:26.581Z,6.75
2022-09-30T04:24:53.902Z,6.35
2022-09-30T04:27:21.312Z,6.30
2022-09-30T04:29:48.459Z,6.15
2022-09-30T04:32:15.847Z,6.78
2022-09-30T04:34:42.997Z,6.10
2022-09-30T04:37:11.269Z,6.63
2022-09-30T04:39:38.522Z,6.15
2022-09-30T04:42:06.224Z,6.28
2022-09-30T04:44:35.341Z,6.80
2022-09-30T04:47:02.753Z,5.78
2022-09-30T04:49:30.003Z,6.43
2022-09-30T04:51:57.182Z,6.50
2022-09-30T04:54:25.105Z,6.50
2022-09-30T04:56:52.354Z,6.85
2022-09-30T04:59:19.551Z,6.88
2022-09-30T05:01:46.952Z,7.30
2022-09-30T05:04:16.132Z,7.45
2022-09-30T05:06:43.389Z,7.05
2022-09-30T05:09:10.568Z,7.13
2022-09-30T05:11:38.267Z,7.60
2022-09-30T05:14:11.321Z,7.93
2022-09-30T05:16:38.732Z,7.30
2022-09-30T05:19:06.056Z,7.55
2022-09-30T05:21:33.307Z,7.80
2022-09-30T05:24:00.618Z,7.63
2022-09-30T05:26:28.045Z,7.15
2022-09-30T05:28:55.223Z,6.95
2022-09-30T05:31:22.599Z,7.30
2022-09-30T05:33:52.520Z,6.93
2022-09-30T05:36:21.888Z,7.50
2022-09-30T05:38:52.744Z,7.07
2022-09-30T05:41:20.952Z,7.45
2022-09-30T05:43:48.744Z,7.93
2022-09-30T05:46:19.651Z,9.55
2022-09-30T05:48:47.058Z,13.30
2022-09-30T05:51:14.413Z,11.18
2022-09-30T05:53:42.154Z,8.52
2022-09-30T05:56:10.299Z,7.78
2022-09-30T05:58:38.697Z,8.30
2022-09-30T06:01:13.159Z,8.15
2022-09-30T06:03:41.500Z,7.82
2022-09-30T06:06:08.981Z,8.00
2022-09-30T06:08:36.299Z,7.97
2022-09-30T06:11:11.809Z,7.95
2022-09-30T06:13:40.233Z,8.65
2022-09-30T06:16:08.666Z,8.18
2022-09-30T06:18:36.198Z,8.40
2022-09-30T06:21:05.299Z,7.75
2022-09-30T06:23:35.061Z,7.90
2022-09-30T06:26:04.300Z,8.15
2022-09-30T06:28:34.253Z,8.02
2022-09-30T06:31:05.310Z,8.82
2022-09-30T06:33:32.736Z,8.35
2022-09-30T06:36:04.212Z,8.48
2022-09-30T06:38:32.480Z,9.23
2022-09-30T06:41:00.395Z,7.85
2022-09-30T06:43:27.708Z,8.65
2022-09-30T06:46:04.469Z,9.00
2022-09-30T06:48:38.831Z,10.93
2022-09-30T06:53:35.507Z,9.80
2022-09-30T06:56:03.034Z,11.25
2022-09-30T06:58:30.523Z,9.93
2022-09-30T07:01:00.811Z,10.65
2022-09-30T07:03:32.354Z,10.45
2022-09-30T07:06:01.627Z,10.95
2022-09-30T07:08:31.538Z,10.70
2022-09-30T07:11:00.023Z,14.15
2022-09-30T07:13:27.232Z,25.02
2022-09-30T07:15:56.535Z,19.50
2022-09-30T07:18:24.566Z,11.70
2022-09-30T07:20:54.405Z,10.93
2022-09-30T07:23:26.497Z,10.85
2022-09-30T07:26:00.424Z,11.23
2022-09-30T07:28:31.383Z,11.45
2022-09-30T07:31:20.349Z,10.35
2022-09-30T07:33:51.276Z,9.88
2022-09-30T07:36:33.135Z,11.60
2022-09-30T07:39:06.963Z,11.73
2022-09-30T07:41:38.080Z,12.05
2022-09-30T07:44:09.043Z,11.57
2022-09-30T07:46:38.901Z,11.20
2022-09-30T07:51:39.016Z,12.18
2022-09-30T07:54:11.020Z,12.93
2022-09-30T07:59:29.162Z,13.13
2022-09-30T08:01:56.514Z,14.80
2022-09-30T08:04:25.474Z,18.25
2022-09-30T08:06:56.846Z,13.60
2022-09-30T08:09:26.205Z,12.80
2022-09-30T08:11:54.314Z,13.68
2022-09-30T08:14:25.203Z,13.13
2022-09-30T08:16:52.925Z,13.10
2022-09-30T08:19:22.769Z,12.07
2022-09-30T08:21:50.413Z,13.48
2022-09-30T08:24:17.897Z,12.95
2022-09-30T08:26:45.204Z,13.02
2022-09-30T08:29:20.521Z,13.27
2022-09-30T08:31:48.325Z,13.18
2022-09-30T08:34:15.790Z,13.32
2022-09-30T08:36:43.151Z,13.73
2022-09-30T08:39:10.969Z,14.40
2022-09-30T08:41:55.965Z,13.82
2022-09-30T08:44:40.952Z,14.70
2022-09-30T08:47:31.789Z,13.55
2022-09-30T08:50:05.947Z,13.10
2022-09-30T08:52:48.369Z,12.50
2022-09-30T08:55:26.016Z,13.57
2022-09-30T08:57:55.861Z,11.98
2022-09-30T09:00:23.252Z,12.25
2022-09-30T09:02:55.943Z,10.35
2022-09-30T09:05:41.538Z,9.38
2022-09-30T09:08:36.661Z,7.15
2022-09-30T09:11:13.980Z,7.03
2022-09-30T09:13:53.932Z,6.18
2022-09-30T09:16:28.259Z,13.93
2022-09-30T09:19:11.101Z,5.75
2022-09-30T09:21:54.864Z,5.68
2022-09-30T09:24:30.637Z,5.30
2022-09-30T09:27:01.413Z,6.07
2022-09-30T09:29:53.945Z,5.78
2022-09-30T09:32:21.170Z,5.70
2022-09-30T09:34:55.660Z,8.93
2022-09-30T09:37:50.366Z,7.35
2022-09-30T09:40:57.367Z,7.13
2022-09-30T09:43:36.776Z,6.53
2022-09-30T09:46:08.839Z,6.57
2022-09-30T09:48:37.196Z,6.57
2022-09-30T09:51:24.733Z,5.72
2022-09-30T09:53:58.087Z,5.80
2022-09-30T09:56:33.371Z,6.97
2022-09-30T09:59:10.857Z,5.95
2022-09-30T10:01:41.641Z,7.57
2022-09-30T10:04:27.695Z,11.57
2022-09-30T10:07:00.539Z,5.72
2022-09-30T10:09:32.140Z,4.38
2022-09-30T10:12:05.196Z,4.50
2022-09-30T10:15:00.778Z,4.93
2022-09-30T10:17:34.625Z,6.32
2022-09-30T10:20:28.159Z,5.15
2022-09-30T10:23:10.253Z,5.22
2022-09-30T10:25:37.449Z,6.60
2022-09-30T10:28:22.650Z,4.78
2022-09-30T10:31:01.382Z,4.55
2022-09-30T10:33:46.903Z,4.70
2022-09-30T10:36:17.061Z,4.85
2022-09-30T10:39:07.324Z,7.45
2022-09-30T10:41:38.378Z,10.65
2022-09-30T10:44:13.243Z,9.32
2022-09-30T10:46:41.997Z,11.77
2022-09-30T10:49:18.889Z,6.50
2022-09-30T10:51:46.305Z,4.15
2022-09-30T10:54:39.969Z,4.35
2022-09-30T10:57:24.618Z,8.27
2022-09-30T11:00:01.172Z,5.05
2022-09-30T11:02:51.867Z,5.20
2022-09-30T11:05:42.761Z,3.85
2022-09-30T11:08:23.225Z,4.68
2022-09-30T11:11:04.709Z,5.57
2022-09-30T11:13:45.319Z,8.45
2022-09-30T11:16:27.839Z,10.73
2022-09-30T11:19:07.708Z,9.65
2022-09-30T11:21:50.931Z,7.10
2022-09-30T11:24:40.944Z,6.60
2022-09-30T11:27:39.480Z,5.78
2022-09-30T11:30:12.971Z,4.65
2022-09-30T11:32:56.393Z,4.40
2022-09-30T11:36:08.698Z,5.90
2022-09-30T11:38:57.736Z,7.75
2022-09-30T11:41:33.720Z,8.32
2022-09-30T11:44:57.732Z,5.30
2022-09-30T11:47:53.542Z,5.25
2022-09-30T11:51:04.621Z,3.75
2022-09-30T11:54:46.832Z,2.70
2022-09-30T11:57:53.590Z,4.03
2022-09-30T12:04:40.579Z,2.40
2022-09-30T12:08:04.520Z,2.60
2022-09-30T12:14:54.055Z,5.25
2022-09-30T12:17:32.581Z,9.90
2022-09-30T12:20:05.420Z,4.32
2022-09-30T12:22:41.747Z,4.78
2022-09-30T12:25:38.984Z,12.73
2022-09-30T12:28:29.055Z,5.05
2022-09-30T12:31:26.600Z,6.43
2022-09-30T12:34:21.776Z,4.90
2022-09-30T12:36:59.198Z,4.00
2022-09-30T12:39:33.435Z,9.10
2022-09-30T12:42:28.785Z,5.45
2022-09-30T12:45:18.156Z,4.60
2022-09-30T12:47:54.523Z,2.47
2022-09-30T12:50:25.893Z,2.50
2022-09-30T12:52:53.221Z,5.75
2022-09-30T12:55:31.707Z,9.63
2022-09-30T12:58:02.809Z,9.32
2022-09-30T13:00:34.743Z,5.35
2022-09-30T13:03:07.494Z,5.25
2022-09-30T13:05:34.687Z,5.55
2022-09-30T13:08:05.107Z,3.42
2022-09-30T13:10:35.199Z,2.53
2022-09-30T13:13:27.803Z,4.38
2022-09-30T13:16:03.746Z,2.00
2022-09-30T13:18:30.996Z,2.33
2022-09-30T13:21:08.557Z,3.20
2022-09-30T13:23:35.657Z,2.50
2022-09-30T13:26:03.743Z,4.20
2022-09-30T13:28:38.068Z,2.67
2022-09-30T13:31:15.258Z,2.97
2022-09-30T13:33:46.087Z,5.03
2022-09-30T13:36:26.768Z,4.72
2022-09-30T13:39:22.053Z,1.88
2022-09-30T13:41:59.487Z,1.90
2022-09-30T13:44:34.874Z,2.13
2022-09-30T13:47:26.582Z,2.70
2022-09-30T13:50:03.073Z,2.20
2022-09-30T13:52:35.096Z,4.05
2022-09-30T13:55:09.723Z,1.60
2022-09-30T13:58:00.706Z,2.30
2022-09-30T14:00:56.890Z,4.95
2022-09-30T14:03:40.163Z,1.83
2022-09-30T14:06:10.311Z,2.63
2022-09-30T14:09:02.043Z,4.13
2022-09-30T14:11:34.925Z,2.53
2022-09-30T14:14:08.362Z,1.80
2022-09-30T14:16:50.827Z,1.30
2022-09-30T14:19:38.477Z,1.90
2022-09-30T14:22:08.696Z,1.50
2022-09-30T14:27:34.604Z,1.80
2022-09-30T14:30:21.113Z,1.98
2022-09-30T14:32:52.864Z,2.10
2022-09-30T14:35:29.320Z,1.58
2022-09-30T14:38:01.034Z,1.45
2022-09-30T14:40:30.831Z,1.80
2022-09-30T14:43:06.422Z,1.45
2022-09-30T14:45:39.556Z,1.63
2022-09-30T14:48:14.454Z,1.33
2022-09-30T14:50:50.588Z,1.55
2022-09-30T14:53:29.177Z,2.05
2022-09-30T14:55:57.370Z,1.50
2022-09-30T14:58:42.472Z,1.60
2022-09-30T15:01:17.584Z,1.60
2022-09-30T15:03:47.469Z,1.60
2022-09-30T15:06:43.164Z,1.40
2022-09-30T15:09:32.487Z,1.50
2022-09-30T15:12:11.096Z,1.38
2022-09-30T15:14:50.342Z,1.17
2022-09-30T15:17:19.677Z,1.20
2022-09-30T15:19:48.249Z,1.07
2022-09-30T15:22:15.673Z,1.30
2022-09-30T15:24:44.335Z,1.35
2022-09-30T15:27:23.929Z,1.58
2022-09-30T15:30:02.936Z,2.22
2022-09-30T15:32:34.595Z,1.50
2022-09-30T15:35:13.246Z,1.30
2022-09-30T15:37:40.545Z,1.50
2022-09-30T15:40:39.222Z,1.33
2022-09-30T15:43:08.530Z,1.23
2022-09-30T15:45:37.873Z,1.73
2022-09-30T15:48:36.084Z,1.30
2022-09-30T15:51:24.865Z,1.65
2022-09-30T15:53:52.820Z,1.55
2022-09-30T15:56:23.067Z,1.65
2022-09-30T16:01:33.324Z,1.90
2022-09-30T16:04:05.031Z,1.50
2022-09-30T16:06:53.858Z,1.70
2022-09-30T16:09:35.158Z,1.92
2022-09-30T16:12:05.388Z,1.52
2022-09-30T16:14:49.997Z,1.50
2022-09-30T16:17:27.366Z,1.58
2022-09-30T16:19:59.731Z,1.77
2022-09-30T16:22:52.547Z,2.22
2022-09-30T16:25:22.869Z,1.75
2022-09-30T16:28:12.675Z,1.50
2022-09-30T16:30:47.587Z,1.38
2022-09-30T16:33:15.791Z,1.30
2022-09-30T16:35:43.663Z,1.40
2022-09-30T16:38:13.609Z,1.50
2022-09-30T16:40:41.070Z,1.40
2022-09-30T16:43:10.902Z,1.52
2022-09-30T16:45:40.034Z,1.42
2022-09-30T16:48:18.527Z,1.50
2022-09-30T16:50:49.844Z,2.00
2022-09-30T16:53:17.802Z,1.52
2022-09-30T16:55:44.971Z,1.52
2022-09-30T16:58:13.151Z,1.73
2022-09-30T17:00:44.522Z,1.33
2022-09-30T17:03:14.937Z,1.45
2022-09-30T17:08:16.039Z,1.80
2022-09-30T17:10:46.936Z,1.90
2022-09-30T17:13:17.134Z,2.05
2022-09-30T17:15:49.266Z,1.88
2022-09-30T17:18:17.454Z,1.75
2022-09-30T17:20:48.903Z,1.70
2022-09-30T17:23:16.224Z,2.08
2022-09-30T17:25:43.757Z,2.08
2022-09-30T17:28:11.834Z,2.10
2022-09-30T17:30:41.921Z,1.90
2022-09-30T17:33:12.203Z,2.45
2022-09-30T17:38:08.661Z,2.08
2022-09-30T17:40:54.641Z,1.95
2022-09-30T17:43:22.137Z,2.42
2022-09-30T17:45:52.669Z,2.38
2022-09-30T17:48:20.319Z,2.20
2022-09-30T17:50:48.558Z,2.42
2022-09-30T17:53:19.002Z,2.70
2022-09-30T17:55:48.424Z,3.17
2022-09-30T17:58:17.037Z,2.73
2022-09-30T18:00:45.201Z,2.63
2022-09-30T18:03:13.239Z,4.60
2022-09-30T18:05:40.398Z,6.32
2022-09-30T18:08:07.947Z,7.72
2022-09-30T18:10:38.234Z,5.63
2022-09-30T18:13:06.217Z,3.80
2022-09-30T18:15:33.571Z,3.17
2022-09-30T18:18:00.792Z,3.00
2022-09-30T18:20:27.985Z,2.90
2022-09-30T18:22:55.296Z,2.72
2022-09-30T18:25:25.642Z,3.08
2022-09-30T18:27:56.997Z,3.40
2022-09-30T18:30:24.557Z,3.67
2022-09-30T18:32:53.789Z,3.80
2022-09-30T18:35:24.375Z,4.15
2022-09-30T18:37:52.397Z,4.90
2022-09-30T18:40:22.746Z,7.07
2022-09-30T18:42:58.342Z,9.40
2022-09-30T18:45:26.881Z,6.45
2022-09-30T18:47:56.317Z,6.03
2022-09-30T18:50:24.807Z,5.20
2022-09-30T18:52:52.745Z,4.75
2022-09-30T18:55:23.459Z,6.13
2022-09-30T18:57:54.418Z,6.07
2022-09-30T19:00:22.022Z,4.32
2022-09-30T19:02:51.733Z,4.60
2022-09-30T19:05:19.337Z,4.75
2022-09-30T19:07:46.496Z,3.42
2022-09-30T19:10:17.128Z,3.17
2022-09-30T19:12:44.675Z,3.60
2022-09-30T19:15:15.725Z,2.90
2022-09-30T19:17:43.903Z,3.20
2022-09-30T19:20:11.648Z,3.00
2022-09-30T19:22:38.858Z,3.40
2022-09-30T19:25:08.700Z,3.10
2022-09-30T19:27:38.377Z,3.03
2022-09-30T19:30:06.560Z,3.33
2022-09-30T19:32:36.746Z,2.95
2022-09-30T19:37:35.162Z,3.13
2022-09-30T19:40:20.057Z,2.92
2022-09-30T19:42:49.668Z,2.90
2022-09-30T19:45:17.902Z,3.30
2022-09-30T19:47:46.195Z,4.40
2022-09-30T19:50:13.413Z,3.78
2022-09-30T19:52:53.148Z,3.60
2022-09-30T19:55:22.623Z,3.05
2022-09-30T19:57:49.925Z,3.00
2022-09-30T20:00:17.431Z,3.20
2022-09-30T20:02:44.669Z,2.55
2022-09-30T20:05:12.650Z,2.60
2022-09-30T20:07:40.037Z,3.08
2022-09-30T20:10:07.810Z,3.00
2022-09-30T20:12:35.173Z,2.55
2022-09-30T20:15:20.966Z,2.70
2022-09-30T20:17:48.419Z,4.47
2022-09-30T20:20:34.213Z,4.15
2022-09-30T20:23:01.493Z,4.40
2022-09-30T20:25:30.050Z,3.88
2022-09-30T20:27:57.284Z,2.97
2022-09-30T20:30:25.437Z,3.17
2022-09-30T20:32:53.368Z,3.40
2022-09-30T20:35:21.836Z,3.08
2022-09-30T20:37:49.049Z,3.20
2022-09-30T20:40:16.375Z,2.95
2022-09-30T20:42:44.475Z,2.70
2022-09-30T20:45:11.820Z,2.70
2022-09-30T20:47:40.758Z,2.80
2022-09-30T20:50:08.391Z,2.90
2022-09-30T20:52:35.893Z,2.97
2022-09-30T20:55:03.275Z,2.67
2022-09-30T20:57:30.480Z,3.33
2022-09-30T20:59:59.748Z,3.08
2022-09-30T21:02:30.462Z,3.40
2022-09-30T21:04:58.130Z,3.47
2022-09-30T21:07:26.643Z,5.40
2022-09-30T21:09:53.933Z,9.80
2022-09-30T21:12:21.826Z,19.80
2022-09-30T21:14:49.085Z,14.35
2022-09-30T21:17:16.292Z,7.53
2022-09-30T21:19:43.678Z,6.40
2022-09-30T21:22:11.233Z,4.10
2022-09-30T21:24:38.562Z,3.67
2022-09-30T21:27:06.287Z,3.53
2022-09-30T21:29:33.713Z,3.13
2022-09-30T21:32:01.605Z,2.97
2022-09-30T21:34:28.861Z,2.65
2022-09-30T21:36:56.017Z,3.10
2022-09-30T21:39:23.292Z,2.78
2022-09-30T21:41:50.739Z,2.78
2022-09-30T21:44:19.706Z,2.45
2022-09-30T21:46:48.703Z,2.25
2022-09-30T21:49:23.857Z,2.10
2022-09-30T21:51:53.560Z,2.28
2022-09-30T21:54:20.957Z,2.20
2022-09-30T21:56:48.967Z,2.75
2022-09-30T21:59:16.783Z,2.13
2022-09-30T22:01:44.098Z,2.00
2022-09-30T22:04:11.367Z,1.90
2022-09-30T22:06:38.647Z,2.10
2022-09-30T22:09:05.962Z,2.38
2022-09-30T22:11:33.611Z,1.90
2022-09-30T22:14:01.077Z,1.90
2022-09-30T22:16:30.878Z,2.30
2022-09-30T22:19:00.578Z,1.95
2022-09-30T22:21:31.799Z,2.08
2022-09-30T22:24:00.369Z,1.88
2022-09-30T22:26:27.794Z,2.08
2022-09-30T22:28:57.996Z,2.08
2022-09-30T22:34:24.094Z,1.80
2022-09-30T22:37:10.542Z,2.25
2022-09-30T22:39:37.765Z,1.80
2022-09-30T22:42:05.154Z,2.05
2022-09-30T22:44:33.891Z,2.13
2022-09-30T22:47:02.297Z,2.20
2022-09-30T22:49:33.293Z,1.80
2022-09-30T22:52:02.031Z,1.80
2022-09-30T22:54:29.695Z,1.90
2022-09-30T22:56:59.222Z,2.30
2022-09-30T22:59:27.560Z,2.25
2022-09-30T23:01:57.860Z,1.77
2022-09-30T23:04:26.864Z,2.38
2022-09-30T23:06:57.867Z,1.88
2022-09-30T23:09:25.264Z,1.80
2022-09-30T23:11:54.394Z,2.22
2022-09-30T23:14:22.589Z,2.20
2022-09-30T23:16:51.678Z,2.00
2022-09-30T23:19:19.633Z,2.03
2022-09-30T23:21:46.803Z,2.10
2022-09-30T23:24:14.713Z,2.05
2022-09-30T23:26:41.986Z,1.65
2022-09-30T23:29:11.962Z,2.00
2022-09-30T23:31:39.750Z,1.95
2022-09-30T23:34:07.391Z,2.08
2022-09-30T23:36:36.515Z,1.90
2022-09-30T23:39:12.426Z,2.10
2022-09-30T23:41:40.051Z,1.83
2022-09-30T23:44:09.673Z,1.67
2022-09-30T23:46:37.008Z,1.77
2022-09-30T23:49:04.517Z,1.60
2022-09-30T23:51:33.582Z,1.70
2022-09-30T23:54:02.354Z,1.90
2022-09-30T23:56:29.664Z,2.10
2022-09-30T23:58:57.456Z,1.80
